createdAt,value
2023-09-13T00:02:10.404Z,18.57
2023-09-13T00:12:14.452Z,18.47
2023-09-13T00:22:18.477Z,18.38
2023-09-13T00:32:23.357Z,18.30
2023-09-13T00:42:29.518Z,18.24
2023-09-13T00:52:34.718Z,18.19
2023-09-13T01:02:42.896Z,18.14
2023-09-13T01:12:47.815Z,18.07
2023-09-13T01:23:20.046Z,17.99
2023-09-13T01:33:24.927Z,17.94
2023-09-13T01:43:29.616Z,17.84
2023-09-13T01:53:33.559Z,17.75
2023-09-13T02:03:37.532Z,17.66
2023-09-13T02:13:41.222Z,17.66
2023-09-13T02:23:45.322Z,17.65
2023-09-13T02:33:50.894Z,17.59
2023-09-13T02:43:54.742Z,17.53
2023-09-13T02:53:58.491Z,17.48
2023-09-13T03:04:03.041Z,17.24
2023-09-13T03:14:07.832Z,16.98
2023-09-13T03:24:12.821Z,16.86
2023-09-13T03:34:17.876Z,16.68
2023-09-13T03:44:21.958Z,16.93
2023-09-13T03:54:26.542Z,16.94
2023-09-13T04:04:31.488Z,16.96
2023-09-13T04:14:35.292Z,17.02
2023-09-13T04:24:39.052Z,17.04
2023-09-13T04:34:42.998Z,17.18
2023-09-13T04:44:47.207Z,17.50
2023-09-13T04:54:52.026Z,17.83
2023-09-13T05:04:55.897Z,18.21
2023-09-13T05:15:00.018Z,18.59
2023-09-13T05:25:05.211Z,19.18
2023-09-13T05:35:12.067Z,19.61
2023-09-13T05:45:15.903Z,20.19
2023-09-13T05:55:19.642Z,20.63
2023-09-13T06:05:23.396Z,20.81
2023-09-13T06:15:27.211Z,21.21
2023-09-13T06:25:31.254Z,21.67
2023-09-13T06:35:38.927Z,22.18
2023-09-13T06:46:00.484Z,22.99
2023-09-13T06:56:09.428Z,23.74
2023-09-13T07:06:14.242Z,24.17
2023-09-13T07:16:18.478Z,24.44
2023-09-13T07:26:23.188Z,24.95
2023-09-13T07:36:29.328Z,25.08
2023-09-13T07:46:33.145Z,24.84
2023-09-13T07:56:38.832Z,24.87
2023-09-13T08:06:42.911Z,25.11
2023-09-13T08:16:47.234Z,25.39
2023-09-13T08:26:51.485Z,25.71
2023-09-13T08:36:57.478Z,26.23
2023-09-13T08:47:03.983Z,27.37
2023-09-13T08:57:07.833Z,28.18
2023-09-13T09:07:12.438Z,28.44
2023-09-13T09:17:18.647Z,28.21
2023-09-13T09:27:22.759Z,28.16
2023-09-13T09:37:31.437Z,28.34
2023-09-13T09:47:40.089Z,28.41
2023-09-13T09:57:48.370Z,28.41
2023-09-13T10:07:56.115Z,28.51
2023-09-13T10:18:04.580Z,28.52
2023-09-13T10:28:10.934Z,28.63
2023-09-13T10:38:22.053Z,28.68
2023-09-13T10:48:27.443Z,28.79
2023-09-13T10:58:31.798Z,28.98
2023-09-13T11:08:36.213Z,29.13
2023-09-13T11:18:50.637Z,29.21
2023-09-13T11:28:55.843Z,29.28
2023-09-13T11:39:07.173Z,29.43
2023-09-13T11:49:35.112Z,29.61
2023-09-13T11:59:46.910Z,29.47
2023-09-13T12:10:00.302Z,29.41
2023-09-13T12:20:07.585Z,29.62
2023-09-13T12:30:20.044Z,29.71
2023-09-13T12:40:28.135Z,29.85
2023-09-13T12:50:35.143Z,29.81
2023-09-13T13:00:50.928Z,29.77
2023-09-13T13:10:57.540Z,30.15
2023-09-13T13:21:08.730Z,30.41
2023-09-13T13:31:17.075Z,30.39
2023-09-13T13:41:22.251Z,30.46
2023-09-13T13:51:28.120Z,30.17
2023-09-13T14:01:33.756Z,30.16
2023-09-13T14:11:41.012Z,30.10
2023-09-13T14:21:55.422Z,30.19
2023-09-13T14:32:03.276Z,30.62
2023-09-13T14:42:07.478Z,30.58
2023-09-13T15:18:05.874Z,29.45
2023-09-13T15:28:09.766Z,29.33
2023-09-13T15:38:13.589Z,29.11
2023-09-13T15:48:19.365Z,28.92
2023-09-13T15:58:23.200Z,28.87
2023-09-13T16:08:26.919Z,28.70
2023-09-13T16:18:32.931Z,28.41
2023-09-13T16:28:36.686Z,28.08
2023-09-13T16:38:40.580Z,27.73
2023-09-13T16:48:44.458Z,27.42
2023-09-13T16:58:48.212Z,27.22
2023-09-13T17:08:52.337Z,26.97
2023-09-13T17:18:56.156Z,26.27
2023-09-13T17:29:05.721Z,25.57
2023-09-13T17:39:13.300Z,25.27
2023-09-13T17:49:20.774Z,25.06
2023-09-13T17:59:25.119Z,24.79
2023-09-13T18:09:29.010Z,24.59
2023-09-13T18:19:32.868Z,24.50
2023-09-13T18:29:38.468Z,24.35
2023-09-13T18:39:43.326Z,24.20
2023-09-13T18:49:47.213Z,24.06
2023-09-13T18:59:51.414Z,23.80
2023-09-13T19:09:55.706Z,23.66
2023-09-13T19:19:59.477Z,23.41
2023-09-13T19:30:03.402Z,23.21
2023-09-13T19:40:09.120Z,23.07
2023-09-13T19:50:13.200Z,22.71
2023-09-13T20:00:17.435Z,22.37
2023-09-13T20:10:22.555Z,22.19
2023-09-13T20:20:30.686Z,22.13
2023-09-13T20:30:35.413Z,22.29
2023-09-13T20:40:39.204Z,22.36
2023-09-13T20:50:43.397Z,22.11
2023-09-13T21:00:47.781Z,21.97
2023-09-13T21:10:53.604Z,21.75
2023-09-13T21:20:59.570Z,21.67
2023-09-13T21:31:05.023Z,21.62
2023-09-13T21:41:10.184Z,21.63
2023-09-13T21:51:14.733Z,21.58
2023-09-13T22:01:19.070Z,21.24
2023-09-13T22:11:26.799Z,21.06
2023-09-13T22:21:30.602Z,20.74
2023-09-13T22:31:34.505Z,20.44
2023-09-13T22:41:45.248Z,20.33
2023-09-13T22:51:50.541Z,20.17
2023-09-13T23:01:54.594Z,20.10
2023-09-13T23:11:58.400Z,20.20
2023-09-13T23:22:04.003Z,20.59
2023-09-13T23:32:07.822Z,20.77
2023-09-13T23:42:12.851Z,20.73
2023-09-13T23:52:16.675Z,20.53
